Time;durP1;ratioP1;P1;durP2;ratioP2;P2;SDS_P1;SDS_P2;PMS_P1;PMS_P2;Temp;Humidity;BMP_temperature;BMP_pressure;BME280_temperature;BME280_humidity;BME280_pressure;Samples;Min_cycle;Max_cycle;Signal;HPM_P1;HPM_P2
2021/10/14 00:00:21;;;;;;;20.98;11.13;;;;;;;18.41;52.58;99412.81;3362591;29;20048;-78
2021/10/14 00:02:02;;;;;;;20.90;12.93;;;;;;;18.43;52.22;99411.50;3362569;29;20056;-76
2021/10/14 00:03:43;;;;;;;18.80;11.77;;;;;;;18.41;51.91;99396.63;3362438;29;20045;-78
2021/10/14 00:05:24;;;;;;;24.38;10.68;;;;;;;18.41;52.14;99404.72;3362650;29;20128;-79
2021/10/14 00:07:04;;;;;;;13.82;10.63;;;;;;;18.44;51.85;99401.50;3361799;29;20045;-76
2021/10/14 00:08:45;;;;;;;29.53;13.13;;;;;;;18.41;51.99;99400.13;3362787;29;20425;-79
2021/10/14 00:10:26;;;;;;;18.63;11.50;;;;;;;18.39;51.69;99393.38;3362741;29;20056;-77
2021/10/14 00:12:07;;;;;;;21.15;12.27;;;;;;;18.39;51.66;99398.75;3362780;29;20080;-76
2021/10/14 00:13:48;;;;;;;16.70;11.97;;;;;;;18.33;51.74;99397.06;3362359;29;20433;-77
2021/10/14 00:15:28;;;;;;;19.60;11.77;;;;;;;18.34;51.84;99396.00;3361523;29;20052;-77
2021/10/14 00:17:09;;;;;;;29.30;12.88;;;;;;;18.31;51.54;99403.53;3362337;29;20049;-76
2021/10/14 00:18:50;;;;;;;23.30;12.75;;;;;;;18.23;51.58;99395.88;3362863;29;20041;-77
2021/10/14 00:20:31;;;;;;;19.17;11.40;;;;;;;18.17;51.59;99394.19;3362083;29;20420;-76
2021/10/14 00:22:11;;;;;;;18.52;12.60;;;;;;;18.08;51.79;99393.00;3362499;29;20041;-75
2021/10/14 00:23:52;;;;;;;20.08;12.45;;;;;;;18.04;52.32;99391.84;3387200;29;20055;-77
2021/10/14 00:25:33;;;;;;;23.05;12.57;;;;;;;17.91;52.26;99386.84;3368024;29;20528;-75
2021/10/14 00:27:13;;;;;;;16.33;12.73;;;;;;;17.71;52.47;99392.75;3364094;29;20457;-77
2021/10/14 00:28:54;;;;;;;18.77;12.87;;;;;;;17.56;53.02;99396.06;3365559;29;20056;-77
2021/10/14 00:30:35;;;;;;;20.52;13.85;;;;;;;17.40;53.14;99393.13;3365267;29;20104;-78
2021/10/14 00:32:15;;;;;;;24.23;12.75;;;;;;;17.24;53.83;99396.63;3365023;29;20080;-79
2021/10/14 00:33:56;;;;;;;24.52;13.73;;;;;;;17.09;54.12;99391.84;3363945;29;20119;-77
2021/10/14 00:35:37;;;;;;;22.88;13.75;;;;;;;16.99;54.10;99389.78;3364865;29;20045;-77
2021/10/14 00:37:18;;;;;;;16.30;12.30;;;;;;;17.00;54.23;99394.09;3365351;29;20409;-77
2021/10/14 00:38:58;;;;;;;19.65;13.43;;;;;;;17.07;53.98;99393.16;3365969;29;20051;-76
2021/10/14 00:40:39;;;;;;;23.83;14.65;;;;;;;17.15;53.37;99395.44;3365928;29;20041;-75
2021/10/14 00:42:20;;;;;;;21.75;14.70;;;;;;;17.15;53.50;99395.44;3366189;29;20535;-76
2021/10/14 00:44:01;;;;;;;25.85;15.85;;;;;;;17.07;53.33;99382.38;3365198;29;20053;-76
2021/10/14 00:45:41;;;;;;;20.48;14.45;;;;;;;17.08;53.44;99384.00;3366435;29;20041;-77
2021/10/14 00:47:27;;;;;;;20.00;15.00;;;;;;;17.03;53.48;99390.09;3367546;29;20096;-76
2021/10/14 00:49:08;;;;;;;22.95;15.15;;;;;;;16.98;53.20;99385.44;3368078;29;20075;-77
2021/10/14 00:50:48;;;;;;;24.38;15.50;;;;;;;16.95;53.46;99372.47;3367537;29;20120;-75
2021/10/14 00:52:32;;;;;;;20.60;14.55;;;;;;;16.90;53.99;99374.28;3365515;29;20135;-77
2021/10/14 00:54:18;;;;;;;26.00;16.27;;;;;;;16.93;53.96;99369.22;3366159;29;20045;-77
2021/10/14 00:55:59;;;;;;;24.23;13.57;;;;;;;17.02;53.61;99364.25;3365415;29;20093;-78
2021/10/14 00:57:40;;;;;;;26.63;16.27;;;;;;;17.09;53.44;99364.06;3365521;29;20505;-76
2021/10/14 00:59:21;;;;;;;20.70;15.32;;;;;;;17.15;53.15;99358.53;3365208;29;20053;-77
2021/10/14 01:01:03;;;;;;;26.83;15.67;;;;;;;17.23;52.67;99354.63;3365115;29;20053;-77
2021/10/14 01:02:43;;;;;;;21.50;15.50;;;;;;;17.23;52.53;99349.22;3365327;29;20366;-76
2021/10/14 01:04:24;;;;;;;19.33;13.77;;;;;;;17.28;52.87;99340.41;3364170;29;20136;-74
2021/10/14 01:06:05;;;;;;;25.23;15.68;;;;;;;17.36;52.73;99348.88;3365357;29;20144;-77
2021/10/14 01:07:46;;;;;;;26.40;17.02;;;;;;;17.27;52.78;99345.00;3364280;29;20061;-77
2021/10/14 01:09:26;;;;;;;29.93;16.57;;;;;;;17.15;53.17;99346.97;3365535;29;20104;-78
2021/10/14 01:11:09;;;;;;;23.83;14.07;;;;;;;17.13;53.62;99343.69;3365911;29;20512;-78
2021/10/14 01:12:50;;;;;;;26.20;16.35;;;;;;;17.20;53.18;99344.34;3365369;29;20124;-78
2021/10/14 01:14:31;;;;;;;30.17;17.63;;;;;;;17.20;52.82;99341.66;3363305;29;20052;-77
2021/10/14 01:16:12;;;;;;;23.60;16.67;;;;;;;17.16;52.97;99345.88;3364734;29;20108;-75
2021/10/14 01:17:55;;;;;;;24.25;16.98;;;;;;;17.11;52.88;99351.19;3376535;29;20049;-78
2021/10/14 01:19:42;;;;;;;21.90;16.67;;;;;;;17.07;53.09;99350.06;3366832;29;20505;-75
2021/10/14 01:21:23;;;;;;;23.45;15.63;;;;;;;17.00;52.95;99352.91;3364628;29;20049;-75
2021/10/14 01:23:03;;;;;;;21.42;14.80;;;;;;;16.99;53.45;99354.78;3364286;29;20155;-79
2021/10/14 01:24:47;;;;;;;23.33;15.95;;;;;;;17.05;52.98;99360.25;3364422;29;20037;-78
2021/10/14 01:26:28;;;;;;;24.25;16.67;;;;;;;17.00;53.18;99351.03;3364093;29;20409;-77
2021/10/14 01:28:08;;;;;;;25.00;16.65;;;;;;;16.99;53.22;99354.78;3364224;29;20124;-76
2021/10/14 01:29:49;;;;;;;24.00;15.00;;;;;;;16.93;53.57;99358.44;3363461;29;20075;-79
2021/10/14 01:31:30;;;;;;;20.08;15.05;;;;;;;16.82;53.99;99353.97;3363750;29;20536;-77
2021/10/14 01:33:11;;;;;;;23.80;15.95;;;;;;;16.85;53.62;99360.72;3364155;29;20136;-78
2021/10/14 01:34:51;;;;;;;25.77;17.35;;;;;;;16.80;53.61;99353.38;3363415;29;20052;-74
2021/10/14 01:36:32;;;;;;;22.60;15.68;;;;;;;16.78;53.71;99350.94;3364170;29;20045;-75
2021/10/14 01:38:13;;;;;;;29.50;16.83;;;;;;;16.73;53.59;99352.72;3364142;29;20505;-75
2021/10/14 01:39:53;;;;;;;23.17;16.42;;;;;;;16.77;53.60;99346.63;3363782;29;20045;-79
2021/10/14 01:41:34;;;;;;;22.83;15.80;;;;;;;16.76;53.63;99347.66;3364251;29;20047;-78
2021/10/14 01:43:15;;;;;;;21.92;15.65;;;;;;;16.89;53.27;99353.81;3364230;29;20044;-76
2021/10/14 01:44:58;;;;;;;20.02;15.85;;;;;;;16.89;53.20;99348.44;3362667;29;20139;-76
2021/10/14 01:46:39;;;;;;;26.38;16.02;;;;;;;16.93;53.17;99347.69;3364152;29;20052;-77
2021/10/14 01:48:20;;;;;;;22.38;14.30;;;;;;;17.02;53.62;99352.69;3364272;29;20048;-76
2021/10/14 01:50:01;;;;;;;22.65;15.95;;;;;;;17.08;53.20;99351.69;3364189;29;20041;-79
2021/10/14 01:51:41;;;;;;;23.30;15.57;;;;;;;17.11;53.04;99340.41;3363140;29;20426;-78
2021/10/14 01:53:22;;;;;;;23.60;16.90;;;;;;;17.09;52.56;99342.53;3363993;29;20100;-79
2021/10/14 01:55:04;;;;;;;23.92;16.52;;;;;;;17.06;52.37;99348.41;3364197;29;20052;-76
2021/10/14 01:56:44;;;;;;;20.27;16.08;;;;;;;16.97;52.56;99346.13;3364208;29;20041;-77
2021/10/14 01:58:25;;;;;;;26.83;17.77;;;;;;;16.89;52.96;99356.50;3362425;29;20081;-79
2021/10/14 02:00:07;;;;;;;24.95;18.45;;;;;;;16.82;52.83;99347.78;3364207;29;20048;-77
2021/10/14 02:01:52;;;;;;;24.38;16.15;;;;;;;16.81;53.12;99348.84;3364218;29;20135;-76
2021/10/14 02:03:32;;;;;;;19.67;15.57;;;;;;;16.74;53.38;99343.56;3363762;29;20041;-79
2021/10/14 02:05:13;;;;;;;20.20;14.70;;;;;;;16.62;53.27;99353.56;3363641;29;20053;-75
2021/10/14 02:06:54;;;;;;;22.90;15.10;;;;;;;16.54;53.90;99349.41;3363761;29;20048;-77
2021/10/14 02:08:34;;;;;;;23.80;14.68;;;;;;;16.50;53.81;99345.59;3363593;29;20080;-76
2021/10/14 02:10:15;;;;;;;18.92;14.25;;;;;;;16.45;53.88;99349.00;3363897;29;20531;-77
2021/10/14 02:11:56;;;;;;;23.33;15.02;;;;;;;16.43;53.82;99355.66;3363591;29;20121;-78
2021/10/14 02:13:36;;;;;;;22.25;13.63;;;;;;;16.39;54.33;99352.63;3363911;29;20108;-79
2021/10/14 02:15:17;;;;;;;20.33;13.25;;;;;;;16.46;53.84;99355.19;3362444;29;20044;-76
2021/10/14 02:16:58;;;;;;;23.35;13.90;;;;;;;16.53;53.61;99345.91;3363548;29;20056;-77
2021/10/14 02:18:38;;;;;;;20.63;14.68;;;;;;;16.58;53.42;99348.69;3363581;29;20055;-78
2021/10/14 02:20:19;;;;;;;25.35;14.18;;;;;;;16.67;53.77;99350.97;3363894;29;20487;-78
2021/10/14 02:22:00;;;;;;;22.95;14.48;;;;;;;16.74;53.39;99347.06;3363794;29;20049;-79
2021/10/14 02:23:41;;;;;;;20.75;13.70;;;;;;;16.81;52.75;99346.97;3364076;29;20052;-77
2021/10/14 02:25:22;;;;;;;17.55;13.45;;;;;;;16.88;52.92;99353.00;3363665;29;20084;-75
2021/10/14 02:27:03;;;;;;;24.48;12.90;;;;;;;16.96;52.80;99347.22;3363771;29;20052;-78
2021/10/14 02:28:43;;;;;;;20.60;13.35;;;;;;;17.01;52.35;99349.16;3363464;29;20041;-81
2021/10/14 02:30:24;;;;;;;18.02;13.10;;;;;;;16.93;52.35;99339.59;3363731;29;20457;-77
2021/10/14 02:32:05;;;;;;;19.92;13.52;;;;;;;16.91;52.65;99343.59;3364039;29;20052;-77
2021/10/14 02:33:46;;;;;;;17.48;12.55;;;;;;;16.91;52.93;99336.34;3363909;29;20496;-75
2021/10/14 02:35:26;;;;;;;18.67;12.27;;;;;;;16.98;52.75;99337.00;3363586;29;20048;-75
2021/10/14 02:37:07;;;;;;;19.10;13.77;;;;;;;16.97;52.58;99335.38;3363580;29;20053;-76
2021/10/14 02:38:48;;;;;;;19.88;13.75;;;;;;;16.90;52.49;99337.41;3362447;29;20056;-78
2021/10/14 02:40:28;;;;;;;24.98;14.70;;;;;;;16.84;52.34;99330.31;3360155;29;20098;-77
2021/10/14 02:42:09;;;;;;;22.25;13.88;;;;;;;16.85;52.67;99331.13;3363478;29;20048;-77
2021/10/14 02:43:50;;;;;;;26.90;15.52;;;;;;;16.75;52.79;99329.03;3363009;29;20532;-75
2021/10/14 02:45:31;;;;;;;22.15;13.27;;;;;;;16.57;53.05;99330.94;3363206;29;20041;-76
2021/10/14 02:47:11;;;;;;;21.50;13.73;;;;;;;16.41;53.37;99323.63;3363526;29;20051;-78
2021/10/14 02:48:52;;;;;;;26.00;15.73;;;;;;;16.30;53.79;99325.31;3363666;29;20520;-75
2021/10/14 02:50:33;;;;;;;15.35;12.10;;;;;;;16.40;54.26;99327.38;3362967;29;20543;-77
2021/10/14 02:52:13;;;;;;;19.33;13.18;;;;;;;16.61;53.49;99320.47;3362453;29;20509;-77
2021/10/14 02:53:54;;;;;;;21.10;14.70;;;;;;;16.73;53.02;99321.22;3362049;29;20088;-76
2021/10/14 02:55:35;;;;;;;19.77;13.45;;;;;;;16.75;52.73;99326.34;3362912;29;20045;-75
2021/10/14 02:57:15;;;;;;;22.45;13.27;;;;;;;16.75;53.03;99326.34;3362337;29;20060;-76
2021/10/14 02:58:56;;;;;;;28.67;13.55;;;;;;;16.83;52.71;99323.31;3359124;29;20045;-76
2021/10/14 03:00:37;;;;;;;21.67;14.23;;;;;;;16.89;52.76;99326.91;3363003;29;20531;-78
2021/10/14 03:02:17;;;;;;;20.90;13.10;;;;;;;16.85;52.57;99329.25;3363254;29;20049;-80
2021/10/14 03:03:58;;;;;;;20.23;12.63;;;;;;;16.87;53.06;99334.41;3363191;29;20466;-76
2021/10/14 03:05:38;;;;;;;23.80;13.63;;;;;;;16.87;52.72;99329.00;3363212;29;20047;-78
2021/10/14 03:07:19;;;;;;;18.10;12.48;;;;;;;16.75;52.81;99321.81;3361950;29;20057;-77
2021/10/14 03:09:00;;;;;;;18.42;12.60;;;;;;;16.72;52.84;99316.09;3362625;29;20044;-77
2021/10/14 03:10:41;;;;;;;21.20;12.55;;;;;;;16.69;53.14;99328.16;3362983;29;20076;-77
2021/10/14 03:12:21;;;;;;;18.02;12.32;;;;;;;16.69;52.66;99319.25;3387511;29;20043;-77
2021/10/14 03:14:02;;;;;;;20.77;15.88;;;;;;;16.69;52.86;99314.69;3367413;29;20048;-78
2021/10/14 03:15:43;;;;;;;20.13;13.43;;;;;;;16.65;52.69;99315.41;3362874;29;20102;-78
2021/10/14 03:17:23;;;;;;;15.52;11.85;;;;;;;16.58;53.23;99315.59;3362804;29;20048;-76
2021/10/14 03:19:04;;;;;;;18.20;11.88;;;;;;;16.55;53.21;99308.81;3362879;29;20143;-79
2021/10/14 03:20:45;;;;;;;19.83;12.23;;;;;;;16.57;52.98;99311.25;3362959;29;20560;-79
2021/10/14 03:22:26;;;;;;;21.52;14.20;;;;;;;16.59;52.96;99306.44;3362758;29;20056;-75
2021/10/14 03:24:06;;;;;;;20.40;13.25;;;;;;;16.58;52.85;99300.25;3363083;29;20049;-79
2021/10/14 03:25:47;;;;;;;16.58;11.13;;;;;;;16.68;53.04;99299.63;3362925;29;20068;-78
2021/10/14 03:27:28;;;;;;;17.83;12.52;;;;;;;16.67;52.72;99306.03;3362286;29;20049;-78
2021/10/14 03:29:08;;;;;;;19.55;12.80;;;;;;;16.63;52.50;99299.53;3362330;29;20048;-77
2021/10/14 03:30:49;;;;;;;22.67;13.25;;;;;;;16.54;52.53;99300.97;3362984;29;20161;-78
2021/10/14 03:32:30;;;;;;;19.17;12.63;;;;;;;16.42;52.85;99295.69;3362866;29;20073;-78
2021/10/14 03:34:10;;;;;;;20.90;12.77;;;;;;;16.38;53.10;99293.72;3362752;29;20056;-80
2021/10/14 03:35:51;;;;;;;19.63;13.27;;;;;;;16.32;53.15;99290.13;3363324;29;20156;-79
2021/10/14 03:37:32;;;;;;;18.48;11.13;;;;;;;16.29;53.44;99285.22;3363732;29;20073;-78
2021/10/14 03:39:12;;;;;;;19.67;10.80;;;;;;;16.26;53.37;99286.53;3363074;29;20519;-79
2021/10/14 03:40:53;;;;;;;16.88;11.93;;;;;;;16.24;53.34;99274.38;3362283;29;20083;-79
2021/10/14 03:42:34;;;;;;;18.95;12.60;;;;;;;16.32;53.13;99282.06;3362231;29;20040;-75
2021/10/14 03:44:17;;;;;;;19.70;11.63;;;;;;;16.35;53.16;99279.69;3362725;29;20421;-80
2021/10/14 03:45:57;;;;;;;18.05;10.48;;;;;;;16.40;52.85;99281.66;3361351;29;20083;-78
2021/10/14 03:47:38;;;;;;;24.98;13.40;;;;;;;16.37;52.88;99279.47;3362535;29;20041;-76
2021/10/14 03:49:19;;;;;;;19.60;11.32;;;;;;;16.30;53.29;99276.09;3362650;29;20205;-79
2021/10/14 03:51:00;;;;;;;17.45;12.07;;;;;;;16.32;53.12;99279.38;3361635;29;20135;-78
2021/10/14 03:52:40;;;;;;;18.60;12.10;;;;;;;16.32;52.94;99279.38;3362470;29;20493;-77
2021/10/14 03:54:21;;;;;;;20.05;11.90;;;;;;;16.32;53.12;99280.19;3362886;29;20056;-79
2021/10/14 03:56:02;;;;;;;20.00;12.00;;;;;;;16.33;53.36;99280.97;3362380;29;20048;-77
2021/10/14 03:57:43;;;;;;;20.98;11.98;;;;;;;16.35;53.35;99274.31;3363112;29;20048;-77
2021/10/14 03:59:23;;;;;;;16.70;11.32;;;;;;;16.34;53.26;99270.00;3362780;29;20074;-79
2021/10/14 04:01:04;;;;;;;19.60;12.20;;;;;;;16.23;52.78;99270.03;3361307;29;20629;-76
2021/10/14 04:02:45;;;;;;;17.73;12.88;;;;;;;16.13;53.27;99263.44;3362832;29;20150;-81
2021/10/14 04:04:25;;;;;;;16.80;12.05;;;;;;;16.11;53.42;99265.56;3365082;29;20064;-77
2021/10/14 04:06:06;;;;;;;18.95;12.60;;;;;;;16.04;53.31;99262.19;3366247;29;20128;-81
2021/10/14 04:07:47;;;;;;;19.58;12.15;;;;;;;16.01;53.92;99262.69;3367584;29;20088;-78
2021/10/14 04:09:27;;;;;;;17.33;11.52;;;;;;;16.02;53.57;99264.31;3367066;29;20153;-77
2021/10/14 04:11:08;;;;;;;24.27;11.85;;;;;;;16.01;53.12;99257.31;3367182;29;20139;-77
2021/10/14 04:12:48;;;;;;;20.65;14.10;;;;;;;15.98;53.28;99265.00;3367376;29;20037;-80
2021/10/14 04:14:29;;;;;;;20.77;11.77;;;;;;;15.96;53.27;99259.91;3364964;29;20041;-78
2021/10/14 04:16:10;;;;;;;18.30;11.32;;;;;;;15.97;53.38;99258.81;3365737;29;20174;-78
2021/10/14 04:17:50;;;;;;;20.45;11.85;;;;;;;15.89;53.27;99249.28;3364509;29;20055;-78
2021/10/14 04:19:31;;;;;;;21.60;12.48;;;;;;;15.78;53.26;99249.34;3351156;29;20100;-82
2021/10/14 04:21:12;;;;;;;19.35;12.38;;;;;;;15.62;53.64;99254.38;3363321;29;20559;-82
2021/10/14 04:22:53;;;;;;;17.90;11.48;;;;;;;15.24;54.00;99206.59;3366995;29;20045;-82
2021/10/14 04:24:34;;;;;;;22.40;12.38;;;;;;;15.24;54.32;99222.72;3377935;29;20052;-77
2021/10/14 04:26:15;;;;;;;18.15;11.70;;;;;;;15.16;54.60;99229.25;3367422;29;20526;-79
2021/10/14 04:27:56;;;;;;;20.52;12.23;;;;;;;15.06;54.91;99229.03;3365688;29;20073;-81
2021/10/14 04:29:36;;;;;;;21.80;12.93;;;;;;;14.99;54.99;99229.16;3365422;29;20037;-81
2021/10/14 04:31:17;;;;;;;20.42;12.82;;;;;;;14.92;55.33;99227.63;3364790;29;20041;-80
2021/10/14 04:32:58;;;;;;;20.65;12.73;;;;;;;14.77;55.28;99220.06;3336840;29;20044;-83
2021/10/14 04:34:41;;;;;;;19.30;11.32;;;;;;;14.73;55.71;99218.91;3359842;29;20049;-82
2021/10/14 04:36:22;;;;;;;21.90;11.60;;;;;;;14.72;55.69;99223.44;3364356;29;20060;-84
2021/10/14 04:38:03;;;;;;;25.08;13.18;;;;;;;14.66;55.92;99221.69;3364474;29;20060;-77
2021/10/14 04:39:43;;;;;;;19.45;12.75;;;;;;;14.61;56.41;99210.84;3365253;29;20561;-80
2021/10/14 04:41:24;;;;;;;19.23;11.48;;;;;;;14.60;56.96;99209.22;3364038;29;20127;-82
2021/10/14 04:43:05;;;;;;;20.60;11.30;;;;;;;14.55;56.68;99211.78;3365160;29;20056;-80
2021/10/14 04:44:45;;;;;;;19.98;11.98;;;;;;;14.46;56.81;99208.59;3365750;29;20045;-82
2021/10/14 04:46:26;;;;;;;25.10;11.55;;;;;;;14.44;56.78;99199.16;3365656;29;20041;-83
2021/10/14 04:48:07;;;;;;;15.43;10.00;;;;;;;14.42;57.22;99182.47;3367415;29;20076;-82
2021/10/14 04:49:48;;;;;;;20.92;11.15;;;;;;;14.28;57.11;99161.25;3368839;29;20048;-83
2021/10/14 04:51:29;;;;;;;18.48;10.90;;;;;;;14.47;57.40;99201.38;3365640;29;20135;-82
2021/10/14 04:53:09;;;;;;;17.17;11.07;;;;;;;14.44;57.53;99188.44;3367482;29;20078;-82
2021/10/14 04:54:50;;;;;;;22.88;12.05;;;;;;;14.25;57.51;99161.72;3364366;29;20056;-79
2021/10/14 04:56:31;;;;;;;19.85;10.88;;;;;;;14.48;57.49;99189.56;3365891;29;20199;-84
2021/10/14 04:58:11;;;;;;;18.98;10.23;;;;;;;14.47;57.46;99193.31;3355190;29;20479;-83
2021/10/14 04:59:52;;;;;;;14.85;10.38;;;;;;;14.44;57.82;99185.75;3364494;29;20049;-82
2021/10/14 05:01:33;;;;;;;16.77;11.07;;;;;;;14.35;57.50;99179.88;3353587;29;20117;-84
2021/10/14 05:03:14;;;;;;;17.13;9.80;;;;;;;14.39;57.43;99192.59;3376445;29;20036;-83
2021/10/14 05:04:55;;;;;;;18.50;11.00;;;;;;;14.36;57.35;99197.63;3357147;29;20525;-81
2021/10/14 05:06:36;;;;;;;18.15;11.23;;;;;;;14.31;57.68;99186.78;3351932;29;20133;-83
2021/10/14 05:08:17;;;;;;;24.23;12.15;;;;;;;14.33;58.01;99193.53;3350981;29;20140;-83
2021/10/14 05:09:58;;;;;;;22.80;12.57;;;;;;;14.32;57.44;99193.75;3360531;29;20393;-80
2021/10/14 05:11:40;;;;;;;19.95;11.70;;;;;;;14.28;56.98;99182.69;3358737;29;20051;-79
2021/10/14 05:13:21;;;;;;;15.07;11.15;;;;;;;14.20;56.97;99175.00;3363347;29;20037;-77
2021/10/14 05:15:07;;;;;;;17.90;10.25;;;;;;;14.29;57.56;99186.19;3357912;29;20494;-83
2021/10/14 05:16:51;;;;;;;18.10;9.70;;;;;;;14.19;58.55;99168.81;3354693;29;20044;-81
2021/10/14 05:18:33;;;;;;;16.02;8.93;;;;;;;14.37;58.10;99196.56;3354852;29;20068;-81
2021/10/14 05:20:14;;;;;;;15.98;9.80;;;;;;;14.29;57.78;99170.91;3354695;29;20339;-77
2021/10/14 05:21:55;;;;;;;15.32;8.65;;;;;;;14.36;56.97;99182.34;3370421;29;20123;-82
2021/10/14 05:23:38;;;;;;;19.90;9.63;;;;;;;14.38;56.26;99196.34;3387947;29;20592;-82
2021/10/14 05:25:21;;;;;;;13.82;8.95;;;;;;;14.31;55.93;99187.59;3367252;29;20045;-82
2021/10/14 05:27:02;;;;;;;17.00;9.00;;;;;;;14.31;55.76;99195.63;3363579;29;20067;-80
2021/10/14 05:28:43;;;;;;;14.25;8.50;;;;;;;14.28;55.42;99206.00;3359353;29;20078;-81
2021/10/14 05:30:25;;;;;;;12.40;7.80;;;;;;;14.24;55.35;99205.63;3369223;29;20072;-83
2021/10/14 05:32:06;;;;;;;16.65;9.98;;;;;;;14.25;55.60;99201.94;3375225;29;20041;-80
2021/10/14 05:33:49;;;;;;;12.48;9.00;;;;;;;14.27;55.53;99197.13;3364075;29;20048;-76
2021/10/14 05:35:30;;;;;;;15.02;8.57;;;;;;;14.29;55.19;99191.56;3363784;29;20105;-75
2021/10/14 05:37:11;;;;;;;10.90;7.82;;;;;;;14.32;55.39;99183.84;3354952;29;20037;-75
2021/10/14 05:38:51;;;;;;;18.52;9.00;;;;;;;14.40;56.58;99180.84;3351203;29;20049;-78
2021/10/14 05:40:33;;;;;;;20.95;10.20;;;;;;;14.41;56.47;99168.25;3362076;29;20049;-76
2021/10/14 05:42:13;;;;;;;18.45;8.98;;;;;;;14.47;55.83;99179.91;3359812;29;20033;-74
2021/10/14 05:43:54;;;;;;;20.33;10.20;;;;;;;14.47;55.03;99178.03;3358833;29;20055;-79
2021/10/14 05:45:35;;;;;;;21.02;8.85;;;;;;;14.40;54.79;99161.25;3354126;29;20457;-75
2021/10/14 05:47:16;;;;;;;23.65;9.55;;;;;;;14.42;55.46;99169.88;3363392;29;20048;-81
2021/10/14 05:48:56;;;;;;;22.08;9.88;;;;;;;14.48;56.87;99154.72;3363420;29;20037;-76
2021/10/14 05:50:40;;;;;;;32.13;11.05;;;;;;;14.73;61.21;99154.50;3363970;29;20480;-78
2021/10/14 05:52:21;;;;;;;17.85;9.10;;;;;;;15.03;58.59;99152.50;3362292;29;20051;-78
2021/10/14 05:54:02;;;;;;;29.58;10.30;;;;;;;15.31;59.22;99155.44;3347993;29;20053;-77
2021/10/14 05:55:48;;;;;;;25.52;9.50;;;;;;;15.69;59.61;99169.13;3363682;29;20486;-75
2021/10/14 05:57:29;;;;;;;17.65;8.55;;;;;;;15.84;58.15;99128.25;3362975;29;20045;-77
2021/10/14 05:59:13;;;;;;;19.25;7.60;;;;;;;16.18;57.34;99139.03;3363523;29;20527;-77
2021/10/14 06:00:56;;;;;;;17.05;7.50;;;;;;;16.44;54.39;99159.06;3363796;29;20041;-83
2021/10/14 06:02:41;;;;;;;14.95;7.90;;;;;;;16.28;52.68;99136.50;3363265;29;20532;-79
2021/10/14 06:04:32;;;;;;;;;;;;;;;16.34;52.56;99164.28;3364384;29;20051;-78
2021/10/14 06:06:13;;;;;;;11.38;6.63;;;;;;;16.05;51.81;99156.28;3390125;29;20338;-80
2021/10/14 06:07:54;;;;;;;19.60;7.15;;;;;;;15.82;51.32;99146.47;3371862;29;20064;-81
2021/10/14 06:09:34;;;;;;;14.00;7.63;;;;;;;15.65;50.93;99161.75;3364948;29;20048;-82
2021/10/14 06:11:15;;;;;;;11.88;7.28;;;;;;;15.46;50.75;99166.47;3362721;29;20707;-78
2021/10/14 06:12:56;;;;;;;16.45;7.63;;;;;;;15.28;50.68;99162.09;3363287;29;20053;-78
2021/10/14 06:14:39;;;;;;;21.55;8.90;;;;;;;15.10;50.65;99171.16;3362804;29;20117;-76
2021/10/14 06:16:20;;;;;;;11.25;6.72;;;;;;;14.99;52.70;99185.41;3363379;29;20041;-79
2021/10/14 06:18:03;;;;;;;17.77;6.75;;;;;;;14.99;52.92;99169.28;3349685;29;20065;-84
2021/10/14 06:19:44;;;;;;;17.17;6.68;;;;;;;14.98;51.64;99160.44;3361720;29;20994;-83
2021/10/14 06:21:24;;;;;;;22.83;8.48;;;;;;;14.98;51.08;99170.34;3363823;29;20041;-83
2021/10/14 06:23:06;;;;;;;14.95;7.40;;;;;;;14.93;51.15;99160.31;3350190;29;20045;-82
2021/10/14 06:24:46;;;;;;;11.75;7.38;;;;;;;14.90;51.17;99166.16;3359938;29;20040;-79
2021/10/14 06:26:27;;;;;;;17.30;7.53;;;;;;;14.87;51.00;99157.75;3363055;29;20048;-79
2021/10/14 06:28:09;;;;;;;16.00;7.93;;;;;;;14.85;50.54;99162.56;3363862;29;20044;-79
2021/10/14 06:29:50;;;;;;;14.63;6.60;;;;;;;14.81;50.23;99157.66;3363756;29;20125;-79
2021/10/14 06:31:31;;;;;;;18.92;7.45;;;;;;;14.62;50.00;99123.97;3362540;29;20516;-78
2021/10/14 06:33:12;;;;;;;26.90;8.30;;;;;;;14.60;50.24;99131.44;3362820;29;20064;-78
2021/10/14 06:34:53;;;;;;;17.30;7.57;;;;;;;14.71;50.21;99149.38;3347648;29;20135;-80
2021/10/14 06:36:34;;;;;;;15.85;7.80;;;;;;;14.70;49.86;99150.44;3359834;29;20073;-80
2021/10/14 06:38:15;;;;;;;18.15;8.32;;;;;;;14.67;49.85;99150.09;3363524;29;20040;-78
2021/10/14 06:39:55;;;;;;;12.45;7.53;;;;;;;14.65;49.62;99155.69;3363516;29;20072;-79
2021/10/14 06:41:36;;;;;;;14.35;7.22;;;;;;;14.60;49.47;99155.56;3351094;29;20061;-77
2021/10/14 06:43:18;;;;;;;14.55;6.82;;;;;;;14.53;49.61;99144.97;3351329;29;20409;-80
2021/10/14 06:44:58;;;;;;;20.70;8.32;;;;;;;14.54;49.39;99154.66;3353205;29;20086;-78
2021/10/14 06:46:40;;;;;;;18.20;8.30;;;;;;;14.50;49.44;99145.41;3358824;29;20037;-77
2021/10/14 06:48:20;;;;;;;13.13;8.73;;;;;;;14.53;49.61;99152.19;3371182;29;20417;-74
2021/10/14 06:50:05;;;;;;;16.70;7.45;;;;;;;14.48;50.09;99131.44;3358002;29;20061;-75
2021/10/14 06:51:46;;;;;;;15.50;6.97;;;;;;;14.53;49.50;99144.97;3355998;29;20763;-75
2021/10/14 06:53:27;;;;;;;16.48;7.13;;;;;;;14.43;49.31;99139.34;3357488;29;20045;-77
2021/10/14 06:55:10;;;;;;;21.20;8.20;;;;;;;14.35;49.18;99137.00;3358604;29;20045;-78
2021/10/14 06:56:51;;;;;;;18.60;7.35;;;;;;;14.32;49.26;99143.63;3359870;29;20145;-80
2021/10/14 06:58:36;;;;;;;15.50;7.80;;;;;;;14.19;48.88;99147.34;3358553;29;20509;-79
2021/10/14 07:00:22;;;;;;;17.45;8.15;;;;;;;14.17;48.90;99148.63;3361096;29;20045;-77
2021/10/14 07:02:03;;;;;;;22.23;8.27;;;;;;;14.14;49.12;99146.44;3358867;29;20049;-78
2021/10/14 07:03:46;;;;;;;18.10;7.60;;;;;;;14.10;49.09;99153.31;3358694;29;20048;-79
2021/10/14 07:05:30;;;;;;;21.33;7.10;;;;;;;14.11;48.97;99147.69;3359635;29;20087;-79
2021/10/14 07:07:10;;;;;;;20.83;8.10;;;;;;;14.12;48.79;99149.34;3356629;29;20053;-77
2021/10/14 07:08:55;;;;;;;20.05;7.53;;;;;;;14.15;48.70;99154.25;3359556;29;20037;-80
2021/10/14 07:10:36;;;;;;;14.57;8.30;;;;;;;14.19;48.90;99158.06;3361984;29;20425;-79
2021/10/14 07:12:17;;;;;;;13.52;7.72;;;;;;;14.19;48.77;99158.06;3382207;29;20040;-79
2021/10/14 07:14:01;;;;;;;24.77;7.88;;;;;;;14.17;48.53;99156.69;3363870;29;20128;-78
2021/10/14 07:15:41;;;;;;;;;;;;;;;14.25;48.66;99163.56;3362453;29;20037;-78
2021/10/14 07:17:22;;;;;;;16.17;8.15;;;;;;;14.09;48.41;99165.06;3359384;29;19923;-81
2021/10/14 07:19:04;;;;;;;16.17;8.23;;;;;;;14.01;48.71;99160.84;3381748;29;20070;-78
2021/10/14 07:20:45;;;;;;;;;;;;;;;14.09;48.80;99165.06;3364022;29;20049;-77
2021/10/14 07:22:29;;;;;;;26.48;9.18;;;;;;;13.99;48.91;99170.16;3359260;29;19924;-79
2021/10/14 07:24:10;;;;;;;20.85;7.75;;;;;;;13.91;48.98;99169.47;3358567;29;20100;-80
2021/10/14 07:25:51;;;;;;;17.63;8.50;;;;;;;13.89;49.12;99160.84;3383701;29;20036;-77
2021/10/14 07:27:32;;;;;;;18.77;8.68;;;;;;;13.90;49.61;99165.13;3362183;29;20041;-78
2021/10/14 07:29:14;;;;;;;24.67;8.27;;;;;;;13.88;49.56;99155.69;3358948;29;20497;-78
2021/10/14 07:30:55;;;;;;;22.30;8.85;;;;;;;13.93;49.59;99164.66;3361819;29;20124;-79
2021/10/14 07:32:37;;;;;;;16.15;8.18;;;;;;;13.90;49.67;99159.78;3361971;29;20079;-79
2021/10/14 07:34:18;;;;;;;19.63;8.70;;;;;;;13.92;49.74;99160.38;3362896;29;20462;-79
2021/10/14 07:35:59;;;;;;;15.63;8.52;;;;;;;13.87;49.64;99143.34;3359891;29;20040;-78
2021/10/14 07:37:39;;;;;;;14.30;7.13;;;;;;;13.84;49.83;99136.59;3356673;29;20127;-80
2021/10/14 07:39:20;;;;;;;23.45;8.80;;;;;;;13.85;49.69;99151.63;3361893;29;20045;-79
2021/10/14 07:41:01;;;;;;;19.02;8.75;;;;;;;13.86;49.90;99155.94;3362038;29;20129;-80
2021/10/14 07:43:03;;;;;;;12.43;8.30;;;;;;;13.91;50.33;99161.44;3360213;29;20425;-82
2021/10/14 07:44:44;;;;;;;13.57;9.00;;;;;;;13.92;50.06;99163.06;3362535;29;20055;-81
2021/10/14 07:46:25;;;;;;;17.90;9.27;;;;;;;13.91;50.12;99157.91;3363383;29;20045;-81